Arlington, California
Current Conditions -  °F | °C
As of 2:53 PM on Wednesday 26 Nov 2014 (Local Time) from KRAL Reporting Station
Clear Clear  
Wind Chill: 90°   Ceiling: Unl
Heat Index: 90°   Visibility: 10mi
Dew Point: 16°   Wind: 5mph
Humidity: 7%   Direction: NA
Pressure: 30.14"   Gusts: NA
Location:  33.8878°N, 117.453°W
Report Text: KRAL 262253Z VRB04KT 10SM CLR 32/M09 A3014 RMK AO2 SLP193 T03221089
Loading
Personal Weather Stations






























Interactive Weather Map New forecast layout! Learn more

10-Day Weather Forecast

Advertisements
Track Severe Weather on mobile